createdAt,value
2023-02-11T10:48:00.825Z,64
2023-02-11T10:53:02.946Z,64
2023-02-11T10:58:05.220Z,64
2023-02-11T11:03:07.462Z,61
2023-02-11T11:08:10.120Z,56
2023-02-11T11:13:12.437Z,52
2023-02-11T11:18:21.170Z,47
2023-02-11T11:23:16.939Z,46
2023-02-11T11:28:19.055Z,45
2023-02-11T11:33:21.251Z,43
2023-02-11T11:38:23.353Z,42
2023-02-11T11:43:25.497Z,42
2023-02-11T11:48:27.661Z,42
2023-02-11T11:53:29.939Z,42
2023-02-11T11:58:32.064Z,42
2023-02-11T12:03:34.529Z,42
2023-02-11T12:08:36.751Z,42
2023-02-11T12:13:38.891Z,43
2023-02-11T12:18:41.063Z,43
2023-02-11T12:23:43.412Z,43
2023-02-11T12:28:45.522Z,44
2023-02-11T12:33:47.850Z,44
2023-02-11T12:38:49.931Z,45
2023-02-11T12:43:52.077Z,45
2023-02-11T12:48:54.255Z,45
2023-02-11T12:53:56.676Z,46
2023-02-11T12:58:58.768Z,46
2023-02-11T13:04:00.951Z,46
2023-02-11T13:09:03.314Z,46
2023-02-11T13:14:05.464Z,47
2023-02-11T13:19:07.754Z,47
2023-02-11T13:24:09.856Z,47
2023-02-11T13:29:11.965Z,48
2023-02-11T13:34:14.134Z,48
2023-02-11T13:39:16.249Z,48
2023-02-11T13:44:18.551Z,48
2023-02-11T13:49:20.666Z,48
2023-02-11T13:54:22.790Z,48
2023-02-11T13:59:25.269Z,48
2023-02-11T14:04:27.351Z,48
2023-02-11T14:09:29.478Z,48
2023-02-11T14:14:31.792Z,48
2023-02-11T14:19:34.037Z,49
2023-02-11T14:24:36.176Z,49
2023-02-11T14:29:38.329Z,49
2023-02-11T14:34:40.789Z,49
2023-02-11T14:39:43.063Z,49
2023-02-11T14:44:45.136Z,49
2023-02-11T14:49:47.494Z,49
2023-02-11T14:54:49.603Z,48
2023-02-11T14:59:51.799Z,47
2023-02-11T15:04:53.918Z,46
2023-02-11T15:09:56.105Z,45
2023-02-11T15:14:58.224Z,43
2023-02-11T15:20:00.407Z,43
2023-02-11T15:25:02.812Z,42
2023-02-11T15:30:05.135Z,42
2023-02-11T15:35:07.247Z,42
2023-02-11T15:40:09.374Z,42
2023-02-11T15:45:11.534Z,42
2023-02-11T15:50:13.687Z,43
2023-02-11T15:55:16.130Z,43
2023-02-11T16:00:18.181Z,43
2023-02-11T16:05:20.347Z,44
2023-02-11T16:10:22.694Z,44
2023-02-11T16:15:24.782Z,44
2023-02-11T16:20:26.988Z,44
2023-02-11T16:25:29.091Z,45
2023-02-11T16:30:31.526Z,45
2023-02-11T16:35:33.799Z,45
2023-02-11T16:40:35.871Z,45
2023-02-11T16:45:38.193Z,45
2023-02-11T16:50:40.466Z,46
2023-02-11T16:55:42.547Z,46
2023-02-11T17:00:45.009Z,46
2023-02-11T17:05:55.257Z,46
2023-02-11T17:10:49.889Z,47
2023-02-11T17:15:52.033Z,47
2023-02-11T17:20:54.121Z,47
2023-02-11T17:25:56.262Z,47
2023-02-11T17:30:58.703Z,47
2023-02-11T17:36:00.777Z,47
2023-02-11T17:41:03.081Z,47
2023-02-11T17:46:05.290Z,47
2023-02-11T17:51:07.342Z,47
2023-02-11T17:56:09.745Z,48
2023-02-11T18:01:11.903Z,48
2023-02-11T18:06:14.058Z,48
2023-02-11T18:11:16.255Z,48
2023-02-11T18:16:18.445Z,49
2023-02-11T18:21:20.709Z,49
2023-02-11T18:26:22.969Z,49
2023-02-11T18:31:25.171Z,49
2023-02-11T18:36:27.285Z,49
2023-02-11T18:41:29.600Z,49
2023-02-11T18:46:31.778Z,48
2023-02-11T18:51:33.993Z,47
2023-02-11T18:56:36.224Z,46
2023-02-11T19:01:38.334Z,46
2023-02-11T19:06:40.479Z,45
2023-02-11T19:11:42.592Z,45
2023-02-11T19:16:44.761Z,45
2023-02-11T19:21:46.909Z,45
2023-02-11T19:26:49.254Z,45
2023-02-11T19:31:51.556Z,45
2023-02-11T19:36:53.782Z,46
2023-02-11T19:41:55.852Z,46
2023-02-11T19:46:58.074Z,46
2023-02-11T19:52:00.375Z,46
2023-02-11T19:57:02.506Z,46
2023-02-11T20:02:04.785Z,46
2023-02-11T20:07:07.061Z,45
2023-02-11T20:12:09.123Z,45
2023-02-11T20:17:11.455Z,46
2023-02-11T20:22:13.610Z,46
2023-02-11T20:27:17.325Z,47
2023-02-11T20:32:17.957Z,47
2023-02-11T20:37:20.085Z,47
2023-02-11T20:42:22.356Z,48
2023-02-11T20:47:24.487Z,48
2023-02-11T20:52:26.650Z,48
2023-02-11T20:57:28.928Z,48
2023-02-11T21:02:31.034Z,48
2023-02-11T21:07:33.201Z,48
2023-02-11T21:12:35.543Z,48
2023-02-11T21:17:37.663Z,48
2023-02-11T21:22:39.835Z,48
2023-02-11T21:27:42.152Z,48
2023-02-11T21:32:44.262Z,48
2023-02-11T21:37:46.576Z,48
2023-02-11T21:42:48.647Z,48
2023-02-11T21:47:50.940Z,48
2023-02-11T21:52:53.266Z,48
2023-02-11T21:57:55.314Z,49
2023-02-11T22:02:57.689Z,49
2023-02-11T22:08:00.114Z,49
2023-02-11T22:13:04.637Z,49
2023-02-11T22:18:04.537Z,48
2023-02-11T22:23:06.702Z,48
2023-02-11T22:28:08.880Z,48
2023-02-11T22:33:11.175Z,48
2023-02-11T22:38:13.596Z,48
2023-02-11T22:43:15.649Z,48
2023-02-11T22:48:18.104Z,48
2023-02-11T22:53:20.455Z,49
2023-02-11T22:58:22.503Z,49
2023-02-11T23:03:24.864Z,49
2023-02-11T23:08:27.019Z,49
2023-02-11T23:13:29.151Z,49
2023-02-11T23:18:31.277Z,49
2023-02-11T23:23:33.573Z,49
2023-02-11T23:28:35.962Z,50
2023-02-11T23:33:38.036Z,50
2023-02-11T23:38:40.195Z,50
2023-02-11T23:43:42.604Z,50
2023-02-11T23:48:44.769Z,50
